| time (UTC) | temp F | wind direction | speed MPH | gust MPH | rain 1hr in | rain 24hr in | rain mn in | humidity % | barometer mb |
| 20260510204017 | 66 | 45 | 7.0 | 13.0 | 0.00 | 0.07 | 0.07 | 87 | 1017.3 |
| 20260510203017 | 66 | 45 | 8.0 | 16.0 | 0.00 | 0.07 | 0.07 | 87 | 1017.5 |
| 20260510202017 | 67 | 45 | 8.0 | 13.0 | 0.01 | 0.07 | 0.07 | 87 | 1017.3 |
| 20260510201017 | 67 | 45 | 10.0 | 16.0 | 0.01 | 0.07 | 0.07 | 86 | 1017.2 |
| 20260510200037 | 66 | 23 | 7.0 | 14.0 | 0.01 | 0.07 | 0.07 | 86 | 1017.3 |
| 20260510195016 | 65 | 45 | 8.0 | 16.0 | 0.01 | 0.07 | 0.07 | 86 | 1017.3 |
| 20260510194017 | 65 | 45 | 8.0 | 14.0 | 0.01 | 0.07 | 0.07 | 86 | 1017.0 |
| 20260510193016 | 66 | 45 | 7.0 | 14.0 | 0.01 | 0.07 | 0.07 | 86 | 1016.9 |
| 20260510192016 | 66 | 45 | 7.0 | 14.0 | 0.00 | 0.06 | 0.06 | 86 | 1016.8 |
| 20260510191016 | 66 | 45 | 9.0 | 15.0 | 0.00 | 0.06 | 0.06 | 85 | 1016.8 |
| 20260510190016 | 67 | 45 | 5.0 | 13.0 | 0.00 | 0.06 | 0.06 | 85 | 1016.7 |
| 20260510185016 | 67 | 45 | 7.0 | 14.0 | 0.00 | 0.06 | 0.06 | 85 | 1016.4 |
| 20260510184016 | 67 | 45 | 8.0 | 12.0 | 0.00 | 0.06 | 0.06 | 85 | 1016.2 |
| 20260510183036 | 67 | 45 | 6.0 | 12.0 | 0.00 | 0.06 | 0.06 | 85 | 1016.1 |
| 20260510182016 | 66 | 68 | 6.0 | 11.0 | 0.00 | 0.06 | 0.06 | 86 | 1015.9 |
| 20260510181016 | 66 | 68 | 6.0 | 10.0 | 0.00 | 0.06 | 0.06 | 86 | 1015.9 |
| 20260510180016 | 66 | 90 | 6.0 | 11.0 | 0.00 | 0.06 | 0.06 | 87 | 1016.0 |
| 20260510175016 | 66 | 68 | 6.0 | 9.0 | 0.00 | 0.06 | 0.06 | 87 | 1016.0 |
| 20260510174016 | 66 | 68 | 9.0 | 13.0 | 0.00 | 0.06 | 0.06 | 87 | 1016.0 |
| 20260510173016 | 66 | 90 | 9.0 | 17.0 | 0.00 | 0.06 | 0.06 | 88 | 1015.6 |
| 20260510172016 | 65 | 90 | 9.0 | 15.0 | 0.00 | 0.06 | 0.06 | 89 | 1015.5 |
| 20260510171016 | 65 | 68 | 9.0 | 13.0 | 0.02 | 0.06 | 0.06 | 89 | 1015.4 |
| 20260510170016 | 65 | 68 | 11.0 | 17.0 | 0.06 | 0.06 | 0.06 | 89 | 1015.2 |
| 20260510165016 | 64 | 68 | 13.0 | 17.0 | 0.06 | 0.06 | 0.06 | 90 | 1015.2 |
| 20260510164036 | 64 | 68 | 12.0 | 18.0 | 0.06 | 0.06 | 0.06 | 90 | 1015.3 |
| 20260510163016 | 64 | 68 | 10.0 | 16.0 | 0.06 | 0.06 | 0.06 | 91 | 1015.6 |
| 20260510162016 | 62 | 45 | 13.0 | 20.0 | 0.06 | 0.06 | 0.06 | 89 | 1015.5 |
| 20260510161016 | 63 | 68 | 11.0 | 17.0 | 0.04 | 0.04 | 0.04 | 87 | 1015.0 |
| 20260510160016 | 64 | 45 | 13.0 | 22.0 | 0.00 | 0.00 | 0.00 | 83 | 1015.7 |
| 20260510155016 | 65 | 45 | 12.0 | 20.0 | 0.00 | 0.00 | 0.00 | 79 | 1015.3 |
| 20260510154036 | 68 | 23 | 9.0 | 23.0 | 0.00 | 0.00 | 0.00 | 75 | 1015.8 |
| 20260510153016 | 75 | 315 | 5.0 | 17.0 | 0.00 | 0.00 | 0.00 | 66 | 1015.4 |
| 20260510152016 | 76 | 158 | 2.0 | 5.0 | 0.00 | 0.00 | 0.00 | 67 | 1013.8 |
| 20260510151016 | 76 | 180 | 6.0 | 11.0 | 0.00 | 0.00 | 0.00 | 66 | 1013.2 |
| 20260510150016 | 76 | 180 | 7.0 | 11.0 | 0.00 | 0.00 | 0.00 | 65 | 1012.8 |
| 20260510145036 | 75 | 158 | 8.0 | 16.0 | 0.00 | 0.00 | 0.00 | 67 | 1012.5 |
| 20260510144016 | 74 | 158 | 8.0 | 15.0 | 0.00 | 0.00 | 0.00 | 68 | 1012.4 |
| 20260510143015 | 74 | 180 | 8.0 | 12.0 | 0.00 | 0.00 | 0.00 | 70 | 1012.5 |
| 20260510142016 | 73 | 135 | 8.0 | 14.0 | 0.00 | 0.00 | 0.00 | 71 | 1012.8 |
| 20260510141016 | 72 | 158 | 7.0 | 12.0 | 0.00 | 0.00 | 0.00 | 72 | 1012.8 |
| 20260510140016 | 72 | 158 | 8.0 | 16.0 | 0.00 | 0.00 | 0.00 | 73 | 1013.0 |
| 20260510135015 | 71 | 135 | 8.0 | 14.0 | 0.00 | 0.00 | 0.00 | 74 | 1013.1 |
| 20260510134015 | 70 | 135 | 9.0 | 15.0 | 0.00 | 0.00 | 0.00 | 76 | 1012.8 |
| 20260510133015 | 69 | 158 | 9.0 | 14.0 | 0.00 | 0.00 | 0.00 | 77 | 1012.9 |
| 20260510132015 | 69 | 135 | 9.0 | 15.0 | 0.00 | 0.00 | 0.00 | 78 | 1012.9 |
| 20260510131015 | 68 | 135 | 9.0 | 14.0 | 0.00 | 0.00 | 0.00 | 78 | 1013.0 |
| 20260510130015 | 68 | 135 | 8.0 | 13.0 | 0.00 | 0.00 | 0.00 | 79 | 1013.2 |
| 20260510125016 | 67 | 135 | 7.0 | 10.0 | 0.00 | 0.00 | 0.00 | 79 | 1013.2 |
| 20260510124017 | 67 | 113 | 7.0 | 12.0 | 0.00 | 0.00 | 0.00 | 79 | 1013.1 |
| 20260510123035 | 67 | 113 | 8.0 | 11.0 | 0.00 | 0.00 | 0.00 | 79 | 1013.1 |
| 20260510122017 | 67 | 113 | 7.0 | 11.0 | 0.00 | 0.00 | 0.00 | 78 | 1013.2 |
| 20260510121017 | 67 | 135 | 6.0 | 10.0 | 0.00 | 0.00 | 0.00 | 78 | 1013.0 |
| 20260510120017 | 67 | 135 | 6.0 | 11.0 | 0.00 | 0.00 | 0.00 | 77 | 1012.9 |
| 20260510115017 | 67 | 135 | 7.0 | 12.0 | 0.00 | 0.00 | 0.00 | 78 | 1012.8 |
| 20260510114017 | 67 | 135 | 5.0 | 10.0 | 0.00 | 0.00 | 0.00 | 80 | 1012.6 |
| 20260510113017 | 66 | 135 | 7.0 | 10.0 | 0.00 | 0.00 | 0.00 | 80 | 1012.7 |
| 20260510112017 | 66 | 135 | 7.0 | 11.0 | 0.00 | 0.00 | 0.00 | 81 | 1012.5 |
| 20260510111017 | 66 | 113 | 9.0 | 13.0 | 0.00 | 0.00 | 0.00 | 81 | 1012.3 |
| 20260510110017 | 66 | 113 | 9.0 | 13.0 | 0.00 | 0.00 | 0.00 | 80 | 1012.2 |
| 20260510105017 | 66 | 113 | 9.0 | 13.0 | 0.00 | 0.00 | 0.00 | 80 | 1012.1 |
| 20260510104017 | 67 | 113 | 10.0 | 16.0 | 0.00 | 0.00 | 0.00 | 79 | 1012.2 |
| 20260510103017 | 67 | 113 | 11.0 | 17.0 | 0.00 | 0.00 | 0.00 | 80 | 1012.0 |
| 20260510102016 | 67 | 113 | 9.0 | 13.0 | 0.00 | 0.00 | 0.00 | 80 | 1012.0 |
| 20260510101017 | 67 | 90 | 7.0 | 12.0 | 0.00 | 0.00 | 0.00 | 80 | 1011.8 |
| 20260510100017 | 67 | 113 | 8.0 | 13.0 | 0.00 | 0.00 | 0.00 | 79 | 1012.0 |
| 20260510095017 | 67 | 113 | 8.0 | 12.0 | 0.00 | 0.00 | 0.00 | 79 | 1012.2 |
| 20260510094017 | 67 | 90 | 9.0 | 16.0 | 0.00 | 0.00 | 0.00 | 80 | 1011.9 |
| 20260510093016 | 67 | 90 | 11.0 | 18.0 | 0.00 | 0.00 | 0.00 | 80 | 1011.7 |
| 20260510092016 | 68 | 68 | 12.0 | 20.0 | 0.00 | 0.00 | 0.00 | 79 | 1011.7 |
| 20260510091016 | 68 | 68 | 10.0 | 16.0 | 0.00 | 0.00 | 0.00 | 78 | 1011.4 |
| 20260510090016 | 69 | 68 | 11.0 | 15.0 | 0.00 | 0.00 | 0.00 | 76 | 1011.4 |
| 20260510085016 | 69 | 68 | 12.0 | 23.0 | 0.00 | 0.00 | 0.00 | 74 | 1011.2 |
| 20260510084016 | 70 | 68 | 12.0 | 17.0 | 0.00 | 0.00 | 0.00 | 72 | 1011.1 |
| 20260510083016 | 71 | 68 | 9.0 | 14.0 | 0.00 | 0.00 | 0.00 | 76 | 1011.4 |
| 20260510082016 | 71 | 68 | 9.0 | 14.0 | 0.00 | 0.00 | 0.00 | 76 | 1010.9 |
| 20260510081016 | 71 | 90 | 12.0 | 19.0 | 0.00 | 0.00 | 0.00 | 76 | 1011.0 |
| 20260510080016 | 70 | 68 | 12.0 | 18.0 | 0.00 | 0.00 | 0.00 | 78 | 1011.4 |
| 20260510075016 | 71 | 45 | 9.0 | 20.0 | 0.00 | 0.00 | 0.00 | 80 | 1011.8 |
| 20260510074016 | 71 | 45 | 8.0 | 17.0 | 0.00 | 0.00 | 0.00 | 81 | 1012.2 |
| 20260510073016 | 72 | 23 | 13.0 | 22.0 | 0.00 | 0.00 | 0.00 | 79 | 1012.0 |
| 20260510072016 | 72 | 23 | 7.0 | 14.0 | 0.00 | 0.00 | 0.00 | 78 | 1011.9 |
| 20260510071016 | 73 | 68 | 4.0 | 7.0 | 0.00 | 0.00 | 0.00 | 77 | 1010.1 |
| 20260510070016 | 73 | 90 | 6.0 | 10.0 | 0.00 | 0.00 | 0.00 | 76 | 1009.5 |
| 20260510065036 | 73 | 113 | 7.0 | 10.0 | 0.00 | 0.00 | 0.00 | 75 | 1009.4 |
| 20260510064036 | 74 | 113 | 6.0 | 9.0 | 0.00 | 0.00 | 0.00 | 74 | 1009.3 |
| 20260510063016 | 74 | 113 | 7.0 | 11.0 | 0.00 | 0.00 | 0.00 | 74 | 1009.3 |
| 20260510062016 | 74 | 90 | 8.0 | 12.0 | 0.00 | 0.00 | 0.00 | 73 | 1009.5 |
| 20260510061036 | 75 | 113 | 8.0 | 12.0 | 0.00 | 0.00 | 0.00 | 74 | 1009.4 |
| 20260510060016 | 75 | 90 | 8.0 | 11.0 | 0.00 | 0.00 | 0.00 | 73 | 1009.7 |
| 20260510054016 | 76 | 90 | 10.0 | 15.0 | 0.00 | 0.00 | 0.00 | 71 | 1010.2 |
| 20260510053016 | 77 | 45 | 12.0 | 22.0 | 0.00 | 0.00 | 0.00 | 70 | 1011.2 |
| 20260510052036 | 78 | 68 | 8.0 | 17.0 | 0.00 | 0.00 | 0.00 | 68 | 1010.8 |
| 20260510051015 | 73 | 23 | 10.0 | 23.0 | 0.00 | 0.00 | 0.00 | 76 | 1011.2 |
| 20260510050016 | 73 | 113 | 2.0 | 5.0 | 0.00 | 0.00 | 0.00 | 75 | 1008.8 |
| 20260510045016 | 73 | 135 | 5.0 | 7.0 | 0.00 | 0.00 | 0.00 | 75 | 1007.8 |
| 20260510044016 | 73 | 113 | 5.0 | 9.0 | 0.00 | 0.00 | 0.00 | 75 | 1007.8 |
| 20260510043016 | 73 | 113 | 5.0 | 8.0 | 0.00 | 0.00 | 0.00 | 74 | 1007.7 |
| 20260510042016 | 74 | 135 | 4.0 | 8.0 | 0.00 | 0.00 | 0.00 | 74 | 1007.4 |
| 20260510041016 | 74 | 135 | 5.0 | 9.0 | 0.00 | 0.00 | 0.00 | 73 | 1007.2 |
| 20260510040016 | 74 | 135 | 6.0 | 10.0 | 0.00 | 0.00 | 0.00 | 72 | 1007.2 |
| 20260510035056 | 75 | 135 | 7.0 | 10.0 | 0.00 | 0.00 | 0.00 | 72 | 1007.2 |
| 20260510034016 | 75 | 135 | 6.0 | 9.0 | 0.00 | 0.00 | 0.00 | 71 | 1007.6 |
| 20260510033016 | 75 | 135 | 6.0 | 10.0 | 0.00 | 0.00 | 0.00 | 71 | 1007.7 |
| 20260510032016 | 76 | 113 | 7.0 | 10.0 | 0.00 | 0.00 | 0.00 | 70 | 1007.8 |
| 20260510031036 | 76 | 113 | 8.0 | 10.0 | 0.00 | 0.00 | 0.00 | 71 | 1007.6 |
| 20260510030016 | 76 | 113 | 9.0 | 14.0 | 0.00 | 0.00 | 0.00 | 72 | 1007.6 |
| 20260510025036 | 76 | 113 | 8.0 | 13.0 | 0.00 | 0.00 | 0.00 | 73 | 1007.5 |
| 20260510024016 | 76 | 113 | 8.0 | 12.0 | 0.00 | 0.00 | 0.00 | 73 | 1007.6 |
| 20260510023016 | 76 | 113 | 7.0 | 12.0 | 0.00 | 0.00 | 0.00 | 73 | 1007.7 |
| 20260510022016 | 76 | 113 | 7.0 | 12.0 | 0.00 | 0.00 | 0.00 | 73 | 1007.6 |
| 20260510021016 | 77 | 113 | 7.0 | 12.0 | 0.00 | 0.00 | 0.00 | 74 | 1007.4 |
| 20260510020016 | 77 | 113 | 8.0 | 11.0 | 0.00 | 0.00 | 0.00 | 74 | 1007.2 |
| 20260510015016 | 77 | 90 | 6.0 | 10.0 | 0.00 | 0.00 | 0.00 | 74 | 1007.2 |
| 20260510014035 | 76 | 90 | 6.0 | 9.0 | 0.00 | 0.00 | 0.00 | 72 | 1007.0 |
| 20260510013016 | 77 | 90 | 4.0 | 6.0 | 0.00 | 0.00 | 0.00 | 69 | 1007.0 |
| 20260510012015 | 77 | 90 | 3.0 | 6.0 | 0.00 | 0.00 | 0.00 | 68 | 1006.9 |
| 20260510011015 | 79 | 68 | 3.0 | 4.0 | 0.00 | 0.00 | 0.00 | 65 | 1006.9 |
| 20260510010015 | 80 | 113 | 2.0 | 3.0 | 0.00 | 0.00 | 0.00 | 64 | 1006.7 |
| 20260510005015 | 82 | 135 | 3.0 | 5.0 | 0.00 | 0.00 | 0.00 | 62 | 1006.6 |
| 20260510004015 | 82 | 135 | 4.0 | 6.0 | 0.00 | 0.00 | 0.00 | 60 | 1006.7 |
| 20260510003016 | 83 | 135 | 4.0 | 7.0 | 0.00 | 0.00 | 0.00 | 57 | 1006.6 |
| 20260510002016 | 84 | 113 | 4.0 | 7.0 | 0.00 | 0.00 | 0.00 | 56 | 1006.5 |
| 20260510001035 | 84 | 113 | 5.0 | 9.0 | 0.00 | 0.00 | 0.00 | 55 | 1006.6 |
| 20260510000036 | 85 | 113 | 6.0 | 9.0 | 0.00 | 0.00 | 0.00 | 55 | 1006.7 |
| 20260509235015 | 85 | 113 | 6.0 | 9.0 | 0.00 | 0.00 | 0.00 | 55 | 1006.7 |
| 20260509234015 | 86 | 113 | 5.0 | 8.0 | 0.00 | 0.00 | 0.00 | 57 | 1006.8 |
| 20260509233017 | 86 | 113 | 7.0 | 10.0 | 0.00 | 0.00 | 0.00 | 55 | 1007.0 |
| 20260509232017 | 86 | 90 | 6.0 | 12.0 | 0.00 | 0.00 | 0.00 | 55 | 1007.0 |
| 20260509231017 | 87 | 113 | 5.0 | 9.0 | 0.00 | 0.00 | 0.00 | 55 | 1007.1 |
| 20260509230017 | 87 | 113 | 6.0 | 10.0 | 0.00 | 0.00 | 0.00 | 55 | 1007.2 |
| 20260509225017 | 87 | 113 | 8.0 | 11.0 | 0.00 | 0.00 | 0.00 | 55 | 1007.2 |
| 20260509224017 | 87 | 113 | 7.0 | 12.0 | 0.00 | 0.00 | 0.00 | 54 | 1007.3 |
| 20260509223017 | 87 | 113 | 5.0 | 9.0 | 0.00 | 0.00 | 0.00 | 52 | 1007.1 |
| 20260509222057 | 88 | 113 | 7.0 | 12.0 | 0.00 | 0.00 | 0.00 | 52 | 1007.2 |
| 20260509221057 | 88 | 135 | 3.0 | 5.0 | 0.00 | 0.00 | 0.00 | 48 | 1007.2 |
| 20260509220017 | 88 | 90 | 6.0 | 13.0 | 0.00 | 0.00 | 0.00 | 47 | 1007.1 |
| 20260509215017 | 88 | 135 | 3.0 | 7.0 | 0.00 | 0.00 | 0.00 | 47 | 1007.2 |
| 20260509214017 | 88 | 45 | 1.0 | 4.0 | 0.00 | 0.00 | 0.00 | 48 | 1007.3 |
| 20260509213017 | 88 | 135 | 5.0 | 10.0 | 0.00 | 0.00 | 0.00 | 47 | 1007.4 |
| 20260509212017 | 88 | 90 | 3.0 | 7.0 | 0.00 | 0.00 | 0.00 | 48 | 1007.6 |
| 20260509211016 | 88 | 135 | 3.0 | 7.0 | 0.00 | 0.00 | 0.00 | 47 | 1007.8 |
| 20260509210016 | 88 | 90 | 2.0 | 4.0 | 0.00 | 0.00 | 0.00 | 47 | 1007.9 |
| 20260509205017 | 88 | 113 | 2.0 | 7.0 | 0.00 | 0.00 | 0.00 | 50 | 1008.1 |